sensor_id;sensor_type;location;lat;lon;timestamp;P1;durP1;ratioP1;P2;durP2;ratioP2
72639;SDS011;60683;51.730;8.762;2023-08-31T00:02:13;12.23;;;6.70;;
72639;SDS011;60683;51.730;8.762;2023-08-31T00:04:40;18.67;;;8.07;;
72639;SDS011;60683;51.730;8.762;2023-08-31T00:07:07;12.73;;;6.47;;
72639;SDS011;60683;51.730;8.762;2023-08-31T00:09:34;14.70;;;5.97;;
72639;SDS011;60683;51.730;8.762;2023-08-31T00:12:01;12.07;;;6.45;;
72639;SDS011;60683;51.730;8.762;2023-08-31T00:14:29;20.38;;;7.15;;
72639;SDS011;60683;51.730;8.762;2023-08-31T00:16:55;15.07;;;7.57;;
72639;SDS011;60683;51.730;8.762;2023-08-31T00:19:25;11.77;;;5.90;;
72639;SDS011;60683;51.730;8.762;2023-08-31T00:21:51;13.30;;;6.60;;
72639;SDS011;60683;51.730;8.762;2023-08-31T00:24:19;11.52;;;6.35;;
72639;SDS011;60683;51.730;8.762;2023-08-31T00:26:47;15.60;;;7.32;;
72639;SDS011;60683;51.730;8.762;2023-08-31T00:29:16;11.23;;;6.70;;
72639;SDS011;60683;51.730;8.762;2023-08-31T00:31:43;12.20;;;6.18;;
72639;SDS011;60683;51.730;8.762;2023-08-31T00:34:10;16.67;;;7.22;;
72639;SDS011;60683;51.730;8.762;2023-08-31T00:36:41;17.60;;;8.40;;
72639;SDS011;60683;51.730;8.762;2023-08-31T00:39:08;17.15;;;7.88;;
72639;SDS011;60683;51.730;8.762;2023-08-31T00:41:36;16.33;;;7.70;;
72639;SDS011;60683;51.730;8.762;2023-08-31T00:44:04;16.90;;;8.80;;
72639;SDS011;60683;51.730;8.762;2023-08-31T00:46:32;18.83;;;8.32;;
72639;SDS011;60683;51.730;8.762;2023-08-31T00:48:59;17.38;;;8.65;;
72639;SDS011;60683;51.730;8.762;2023-08-31T00:51:28;21.13;;;8.98;;
72639;SDS011;60683;51.730;8.762;2023-08-31T00:53:57;13.38;;;7.15;;
72639;SDS011;60683;51.730;8.762;2023-08-31T00:56:24;17.40;;;8.43;;
72639;SDS011;60683;51.730;8.762;2023-08-31T00:58:52;15.13;;;5.05;;
72639;SDS011;60683;51.730;8.762;2023-08-31T01:01:21;19.55;;;9.25;;
72639;SDS011;60683;51.730;8.762;2023-08-31T01:03:58;19.70;;;8.77;;
72639;SDS011;60683;51.730;8.762;2023-08-31T01:06:49;13.27;;;6.15;;
72639;SDS011;60683;51.730;8.762;2023-08-31T01:09:24;18.50;;;9.10;;
72639;SDS011;60683;51.730;8.762;2023-08-31T01:14:27;21.98;;;8.48;;
72639;SDS011;60683;51.730;8.762;2023-08-31T01:16:59;16.70;;;8.30;;
72639;SDS011;60683;51.730;8.762;2023-08-31T01:19:34;15.40;;;8.30;;
72639;SDS011;60683;51.730;8.762;2023-08-31T01:22:11;22.40;;;8.55;;
72639;SDS011;60683;51.730;8.762;2023-08-31T01:24:44;17.25;;;9.02;;
72639;SDS011;60683;51.730;8.762;2023-08-31T01:27:11;19.42;;;9.02;;
72639;SDS011;60683;51.730;8.762;2023-08-31T01:29:38;17.88;;;8.82;;
72639;SDS011;60683;51.730;8.762;2023-08-31T01:32:05;19.60;;;9.25;;
72639;SDS011;60683;51.730;8.762;2023-08-31T01:34:34;18.58;;;9.20;;
72639;SDS011;60683;51.730;8.762;2023-08-31T01:37:02;19.10;;;9.32;;
72639;SDS011;60683;51.730;8.762;2023-08-31T01:39:49;22.05;;;9.20;;
72639;SDS011;60683;51.730;8.762;2023-08-31T01:42:22;19.08;;;8.50;;
72639;SDS011;60683;51.730;8.762;2023-08-31T01:44:52;21.42;;;8.48;;
72639;SDS011;60683;51.730;8.762;2023-08-31T01:47:22;16.67;;;8.23;;
72639;SDS011;60683;51.730;8.762;2023-08-31T01:49:50;25.13;;;9.57;;
72639;SDS011;60683;51.730;8.762;2023-08-31T01:52:17;14.95;;;8.57;;
72639;SDS011;60683;51.730;8.762;2023-08-31T01:54:44;18.75;;;8.38;;
72639;SDS011;60683;51.730;8.762;2023-08-31T01:57:12;17.33;;;7.75;;
72639;SDS011;60683;51.730;8.762;2023-08-31T01:59:40;16.67;;;8.20;;
72639;SDS011;60683;51.730;8.762;2023-08-31T02:02:06;15.40;;;8.75;;
72639;SDS011;60683;51.730;8.762;2023-08-31T02:04:34;15.27;;;7.78;;
72639;SDS011;60683;51.730;8.762;2023-08-31T02:07:00;14.65;;;7.57;;
72639;SDS011;60683;51.730;8.762;2023-08-31T02:09:28;11.07;;;5.68;;
72639;SDS011;60683;51.730;8.762;2023-08-31T02:11:54;12.23;;;6.35;;
72639;SDS011;60683;51.730;8.762;2023-08-31T02:14:23;17.60;;;7.25;;
72639;SDS011;60683;51.730;8.762;2023-08-31T02:16:50;17.80;;;8.10;;
72639;SDS011;60683;51.730;8.762;2023-08-31T02:19:17;15.32;;;7.50;;
72639;SDS011;60683;51.730;8.762;2023-08-31T02:21:44;14.60;;;7.35;;
72639;SDS011;60683;51.730;8.762;2023-08-31T02:24:11;13.95;;;7.32;;
72639;SDS011;60683;51.730;8.762;2023-08-31T02:26:37;17.15;;;8.02;;
72639;SDS011;60683;51.730;8.762;2023-08-31T02:29:04;18.27;;;8.18;;
72639;SDS011;60683;51.730;8.762;2023-08-31T02:31:32;16.38;;;7.28;;
72639;SDS011;60683;51.730;8.762;2023-08-31T02:34:00;14.63;;;7.68;;
72639;SDS011;60683;51.730;8.762;2023-08-31T02:36:26;17.40;;;7.95;;
72639;SDS011;60683;51.730;8.762;2023-08-31T02:38:53;12.93;;;6.95;;
72639;SDS011;60683;51.730;8.762;2023-08-31T02:41:20;13.13;;;6.53;;
72639;SDS011;60683;51.730;8.762;2023-08-31T02:43:49;15.23;;;7.40;;
72639;SDS011;60683;51.730;8.762;2023-08-31T02:46:17;14.07;;;6.80;;
72639;SDS011;60683;51.730;8.762;2023-08-31T02:48:45;13.82;;;6.35;;
72639;SDS011;60683;51.730;8.762;2023-08-31T02:51:13;12.52;;;6.50;;
72639;SDS011;60683;51.730;8.762;2023-08-31T02:53:40;12.18;;;6.72;;
72639;SDS011;60683;51.730;8.762;2023-08-31T02:56:07;11.00;;;5.70;;
72639;SDS011;60683;51.730;8.762;2023-08-31T02:58:34;16.27;;;7.90;;
72639;SDS011;60683;51.730;8.762;2023-08-31T03:01:08;13.35;;;6.40;;
72639;SDS011;60683;51.730;8.762;2023-08-31T03:03:37;15.02;;;6.45;;
72639;SDS011;60683;51.730;8.762;2023-08-31T03:06:05;12.95;;;6.45;;
72639;SDS011;60683;51.730;8.762;2023-08-31T03:08:32;16.58;;;5.63;;
72639;SDS011;60683;51.730;8.762;2023-08-31T03:10:59;12.02;;;5.93;;
72639;SDS011;60683;51.730;8.762;2023-08-31T03:13:26;7.50;;;3.78;;
72639;SDS011;60683;51.730;8.762;2023-08-31T03:15:53;7.47;;;4.30;;
72639;SDS011;60683;51.730;8.762;2023-08-31T03:18:22;9.27;;;5.38;;
72639;SDS011;60683;51.730;8.762;2023-08-31T03:20:48;10.43;;;5.20;;
72639;SDS011;60683;51.730;8.762;2023-08-31T03:23:17;7.22;;;3.90;;
72639;SDS011;60683;51.730;8.762;2023-08-31T03:25:44;9.27;;;4.28;;
72639;SDS011;60683;51.730;8.762;2023-08-31T03:28:11;9.07;;;4.20;;
72639;SDS011;60683;51.730;8.762;2023-08-31T03:30:38;9.65;;;3.63;;
72639;SDS011;60683;51.730;8.762;2023-08-31T03:33:05;7.60;;;3.70;;
72639;SDS011;60683;51.730;8.762;2023-08-31T03:35:32;10.57;;;3.92;;
72639;SDS011;60683;51.730;8.762;2023-08-31T03:37:59;8.32;;;3.65;;
72639;SDS011;60683;51.730;8.762;2023-08-31T03:40:28;9.77;;;4.32;;
72639;SDS011;60683;51.730;8.762;2023-08-31T03:42:55;7.55;;;3.33;;
72639;SDS011;60683;51.730;8.762;2023-08-31T03:45:22;7.00;;;3.30;;
72639;SDS011;60683;51.730;8.762;2023-08-31T03:47:49;7.07;;;4.00;;
72639;SDS011;60683;51.730;8.762;2023-08-31T03:50:16;7.78;;;4.18;;
72639;SDS011;60683;51.730;8.762;2023-08-31T03:52:43;9.60;;;3.78;;
72639;SDS011;60683;51.730;8.762;2023-08-31T03:55:09;8.45;;;3.75;;
72639;SDS011;60683;51.730;8.762;2023-08-31T03:57:38;6.82;;;3.90;;
72639;SDS011;60683;51.730;8.762;2023-08-31T04:00:05;6.60;;;3.95;;
72639;SDS011;60683;51.730;8.762;2023-08-31T04:02:34;7.97;;;4.70;;
72639;SDS011;60683;51.730;8.762;2023-08-31T04:05:03;11.98;;;4.78;;
72639;SDS011;60683;51.730;8.762;2023-08-31T04:07:33;10.85;;;5.13;;
72639;SDS011;60683;51.730;8.762;2023-08-31T04:10:00;9.55;;;4.93;;
72639;SDS011;60683;51.730;8.762;2023-08-31T04:12:28;10.23;;;5.30;;
72639;SDS011;60683;51.730;8.762;2023-08-31T04:14:57;11.45;;;5.57;;
72639;SDS011;60683;51.730;8.762;2023-08-31T04:17:24;12.18;;;5.00;;
72639;SDS011;60683;51.730;8.762;2023-08-31T04:19:51;11.63;;;5.72;;
72639;SDS011;60683;51.730;8.762;2023-08-31T04:22:18;9.27;;;5.03;;
72639;SDS011;60683;51.730;8.762;2023-08-31T04:24:45;9.43;;;4.97;;
72639;SDS011;60683;51.730;8.762;2023-08-31T04:27:12;14.15;;;6.13;;
72639;SDS011;60683;51.730;8.762;2023-08-31T04:29:39;11.45;;;4.80;;
72639;SDS011;60683;51.730;8.762;2023-08-31T04:32:08;11.90;;;6.18;;
72639;SDS011;60683;51.730;8.762;2023-08-31T04:34:35;11.13;;;5.38;;
72639;SDS011;60683;51.730;8.762;2023-08-31T04:37:02;10.65;;;5.60;;
72639;SDS011;60683;51.730;8.762;2023-08-31T04:39:29;10.32;;;5.78;;
72639;SDS011;60683;51.730;8.762;2023-08-31T04:41:56;8.25;;;5.03;;
72639;SDS011;60683;51.730;8.762;2023-08-31T04:44:23;10.55;;;5.63;;
72639;SDS011;60683;51.730;8.762;2023-08-31T04:46:50;10.05;;;4.72;;
72639;SDS011;60683;51.730;8.762;2023-08-31T04:49:19;10.45;;;5.13;;
72639;SDS011;60683;51.730;8.762;2023-08-31T04:51:47;9.15;;;4.47;;
72639;SDS011;60683;51.730;8.762;2023-08-31T04:54:14;9.25;;;5.70;;
72639;SDS011;60683;51.730;8.762;2023-08-31T04:56:42;9.00;;;4.93;;
72639;SDS011;60683;51.730;8.762;2023-08-31T04:59:09;7.95;;;5.15;;
72639;SDS011;60683;51.730;8.762;2023-08-31T05:01:36;11.88;;;5.22;;
72639;SDS011;60683;51.730;8.762;2023-08-31T05:04:03;13.55;;;5.70;;
72639;SDS011;60683;51.730;8.762;2023-08-31T05:06:32;11.15;;;5.78;;
72639;SDS011;60683;51.730;8.762;2023-08-31T05:08:59;10.95;;;5.15;;
72639;SDS011;60683;51.730;8.762;2023-08-31T05:11:27;11.20;;;5.90;;
72639;SDS011;60683;51.730;8.762;2023-08-31T05:13:54;13.65;;;5.75;;
72639;SDS011;60683;51.730;8.762;2023-08-31T05:16:21;8.65;;;5.18;;
72639;SDS011;60683;51.730;8.762;2023-08-31T05:18:48;8.73;;;5.72;;
72639;SDS011;60683;51.730;8.762;2023-08-31T05:21:15;12.32;;;6.57;;
72639;SDS011;60683;51.730;8.762;2023-08-31T05:23:43;8.60;;;4.70;;
72639;SDS011;60683;51.730;8.762;2023-08-31T05:26:10;8.77;;;4.90;;
72639;SDS011;60683;51.730;8.762;2023-08-31T05:28:37;12.40;;;6.80;;
72639;SDS011;60683;51.730;8.762;2023-08-31T05:31:04;10.30;;;6.10;;
72639;SDS011;60683;51.730;8.762;2023-08-31T05:33:31;10.38;;;5.50;;
72639;SDS011;60683;51.730;8.762;2023-08-31T05:36:00;13.02;;;6.63;;
72639;SDS011;60683;51.730;8.762;2023-08-31T05:38:29;12.00;;;6.55;;
72639;SDS011;60683;51.730;8.762;2023-08-31T05:41:04;13.77;;;7.78;;
72639;SDS011;60683;51.730;8.762;2023-08-31T05:43:32;10.90;;;6.47;;
72639;SDS011;60683;51.730;8.762;2023-08-31T05:45:59;15.68;;;7.78;;
72639;SDS011;60683;51.730;8.762;2023-08-31T05:48:26;13.77;;;6.63;;
72639;SDS011;60683;51.730;8.762;2023-08-31T05:50:53;13.57;;;7.65;;
72639;SDS011;60683;51.730;8.762;2023-08-31T05:53:20;10.23;;;6.80;;
72639;SDS011;60683;51.730;8.762;2023-08-31T05:55:48;11.45;;;7.45;;
72639;SDS011;60683;51.730;8.762;2023-08-31T05:58:16;15.02;;;8.23;;
72639;SDS011;60683;51.730;8.762;2023-08-31T06:00:43;13.25;;;7.10;;
72639;SDS011;60683;51.730;8.762;2023-08-31T06:03:10;11.90;;;7.45;;
72639;SDS011;60683;51.730;8.762;2023-08-31T06:05:37;11.18;;;6.95;;
72639;SDS011;60683;51.730;8.762;2023-08-31T06:08:05;12.75;;;7.07;;
72639;SDS011;60683;51.730;8.762;2023-08-31T06:10:32;11.30;;;7.22;;
72639;SDS011;60683;51.730;8.762;2023-08-31T06:12:59;10.88;;;6.93;;
72639;SDS011;60683;51.730;8.762;2023-08-31T06:15:27;12.80;;;6.90;;
72639;SDS011;60683;51.730;8.762;2023-08-31T06:17:54;8.95;;;5.65;;
72639;SDS011;60683;51.730;8.762;2023-08-31T06:20:21;10.90;;;6.32;;
72639;SDS011;60683;51.730;8.762;2023-08-31T06:22:48;10.82;;;6.30;;
72639;SDS011;60683;51.730;8.762;2023-08-31T06:25:16;9.57;;;6.28;;
72639;SDS011;60683;51.730;8.762;2023-08-31T06:27:44;8.55;;;5.53;;
72639;SDS011;60683;51.730;8.762;2023-08-31T06:30:11;9.82;;;5.00;;
72639;SDS011;60683;51.730;8.762;2023-08-31T06:32:43;8.40;;;5.55;;
72639;SDS011;60683;51.730;8.762;2023-08-31T06:35:10;7.78;;;5.88;;
72639;SDS011;60683;51.730;8.762;2023-08-31T06:37:38;9.25;;;5.68;;
72639;SDS011;60683;51.730;8.762;2023-08-31T06:40:06;8.98;;;4.63;;
72639;SDS011;60683;51.730;8.762;2023-08-31T06:42:34;7.10;;;4.40;;
72639;SDS011;60683;51.730;8.762;2023-08-31T06:45:03;8.15;;;3.60;;
72639;SDS011;60683;51.730;8.762;2023-08-31T06:47:30;11.10;;;5.07;;
72639;SDS011;60683;51.730;8.762;2023-08-31T06:49:59;6.00;;;3.97;;
72639;SDS011;60683;51.730;8.762;2023-08-31T06:52:26;8.63;;;5.18;;
72639;SDS011;60683;51.730;8.762;2023-08-31T06:54:54;11.38;;;5.78;;
72639;SDS011;60683;51.730;8.762;2023-08-31T06:57:22;7.93;;;4.75;;
72639;SDS011;60683;51.730;8.762;2023-08-31T06:59:49;9.15;;;5.45;;
72639;SDS011;60683;51.730;8.762;2023-08-31T07:02:16;10.45;;;6.35;;
72639;SDS011;60683;51.730;8.762;2023-08-31T07:04:44;11.55;;;5.88;;
72639;SDS011;60683;51.730;8.762;2023-08-31T07:07:14;6.60;;;4.00;;
72639;SDS011;60683;51.730;8.762;2023-08-31T07:09:41;12.27;;;5.63;;
72639;SDS011;60683;51.730;8.762;2023-08-31T07:12:09;9.35;;;5.28;;
72639;SDS011;60683;51.730;8.762;2023-08-31T07:14:36;11.23;;;5.93;;
72639;SDS011;60683;51.730;8.762;2023-08-31T07:17:04;7.22;;;4.70;;
72639;SDS011;60683;51.730;8.762;2023-08-31T07:19:31;10.52;;;6.25;;
72639;SDS011;60683;51.730;8.762;2023-08-31T07:21:58;14.07;;;6.70;;
72639;SDS011;60683;51.730;8.762;2023-08-31T07:24:26;6.68;;;4.20;;
72639;SDS011;60683;51.730;8.762;2023-08-31T07:26:54;8.93;;;6.22;;
72639;SDS011;60683;51.730;8.762;2023-08-31T07:29:21;6.43;;;4.45;;
72639;SDS011;60683;51.730;8.762;2023-08-31T07:31:48;5.80;;;3.25;;
72639;SDS011;60683;51.730;8.762;2023-08-31T07:34:15;6.32;;;4.20;;
72639;SDS011;60683;51.730;8.762;2023-08-31T07:36:42;8.57;;;4.72;;
72639;SDS011;60683;51.730;8.762;2023-08-31T07:39:09;7.15;;;3.25;;
72639;SDS011;60683;51.730;8.762;2023-08-31T07:41:37;7.32;;;3.75;;
72639;SDS011;60683;51.730;8.762;2023-08-31T07:44:05;7.50;;;4.15;;
72639;SDS011;60683;51.730;8.762;2023-08-31T07:46:32;6.35;;;3.63;;
72639;SDS011;60683;51.730;8.762;2023-08-31T07:48:59;7.28;;;3.60;;
72639;SDS011;60683;51.730;8.762;2023-08-31T07:51:26;4.40;;;3.00;;
72639;SDS011;60683;51.730;8.762;2023-08-31T07:53:54;6.38;;;3.40;;
72639;SDS011;60683;51.730;8.762;2023-08-31T07:56:21;6.55;;;3.08;;
72639;SDS011;60683;51.730;8.762;2023-08-31T07:58:50;6.43;;;2.75;;
72639;SDS011;60683;51.730;8.762;2023-08-31T08:01:17;6.82;;;2.88;;
72639;SDS011;60683;51.730;8.762;2023-08-31T08:03:44;4.40;;;2.30;;
72639;SDS011;60683;51.730;8.762;2023-08-31T08:06:11;6.22;;;2.63;;
72639;SDS011;60683;51.730;8.762;2023-08-31T08:08:39;4.90;;;2.22;;
72639;SDS011;60683;51.730;8.762;2023-08-31T08:11:06;4.95;;;2.42;;
72639;SDS011;60683;51.730;8.762;2023-08-31T08:13:33;4.82;;;2.05;;
72639;SDS011;60683;51.730;8.762;2023-08-31T08:16:02;3.88;;;2.00;;
72639;SDS011;60683;51.730;8.762;2023-08-31T08:18:29;6.80;;;2.25;;
72639;SDS011;60683;51.730;8.762;2023-08-31T08:20:57;5.63;;;2.85;;
72639;SDS011;60683;51.730;8.762;2023-08-31T08:23:24;4.53;;;2.45;;
72639;SDS011;60683;51.730;8.762;2023-08-31T08:25:51;4.28;;;2.28;;
72639;SDS011;60683;51.730;8.762;2023-08-31T08:28:18;6.82;;;2.83;;
72639;SDS011;60683;51.730;8.762;2023-08-31T08:30:45;4.38;;;2.38;;
72639;SDS011;60683;51.730;8.762;2023-08-31T08:33:13;4.35;;;2.40;;
72639;SDS011;60683;51.730;8.762;2023-08-31T08:35:40;7.88;;;3.83;;
72639;SDS011;60683;51.730;8.762;2023-08-31T08:38:07;5.10;;;3.13;;
72639;SDS011;60683;51.730;8.762;2023-08-31T08:40:34;9.80;;;3.28;;
72639;SDS011;60683;51.730;8.762;2023-08-31T08:43:02;6.68;;;2.97;;
72639;SDS011;60683;51.730;8.762;2023-08-31T08:45:35;7.75;;;3.03;;
72639;SDS011;60683;51.730;8.762;2023-08-31T08:48:05;5.43;;;2.92;;
72639;SDS011;60683;51.730;8.762;2023-08-31T08:50:34;4.55;;;2.88;;
72639;SDS011;60683;51.730;8.762;2023-08-31T08:53:03;6.78;;;3.72;;
72639;SDS011;60683;51.730;8.762;2023-08-31T08:55:30;5.55;;;3.50;;
72639;SDS011;60683;51.730;8.762;2023-08-31T08:57:58;4.80;;;2.95;;
72639;SDS011;60683;51.730;8.762;2023-08-31T09:00:25;5.25;;;2.85;;
72639;SDS011;60683;51.730;8.762;2023-08-31T09:02:53;7.07;;;2.85;;
72639;SDS011;60683;51.730;8.762;2023-08-31T09:05:20;4.07;;;2.13;;
72639;SDS011;60683;51.730;8.762;2023-08-31T09:08:01;5.93;;;2.75;;
72639;SDS011;60683;51.730;8.762;2023-08-31T09:10:38;4.18;;;2.08;;
72639;SDS011;60683;51.730;8.762;2023-08-31T09:13:08;5.40;;;3.05;;
72639;SDS011;60683;51.730;8.762;2023-08-31T09:15:35;6.20;;;2.65;;
72639;SDS011;60683;51.730;8.762;2023-08-31T09:18:05;4.45;;;2.08;;
72639;SDS011;60683;51.730;8.762;2023-08-31T09:20:31;4.50;;;2.38;;
72639;SDS011;60683;51.730;8.762;2023-08-31T09:23:10;5.30;;;2.42;;
72639;SDS011;60683;51.730;8.762;2023-08-31T09:25:40;5.38;;;2.80;;
72639;SDS011;60683;51.730;8.762;2023-08-31T09:28:09;6.50;;;2.72;;
72639;SDS011;60683;51.730;8.762;2023-08-31T09:30:36;5.63;;;2.75;;
72639;SDS011;60683;51.730;8.762;2023-08-31T09:33:04;5.05;;;2.22;;
72639;SDS011;60683;51.730;8.762;2023-08-31T09:35:31;4.78;;;2.33;;
72639;SDS011;60683;51.730;8.762;2023-08-31T09:37:58;4.78;;;2.30;;
72639;SDS011;60683;51.730;8.762;2023-08-31T09:40:28;4.25;;;2.05;;
72639;SDS011;60683;51.730;8.762;2023-08-31T09:42:55;5.78;;;3.53;;
72639;SDS011;60683;51.730;8.762;2023-08-31T09:45:25;4.22;;;2.55;;
72639;SDS011;60683;51.730;8.762;2023-08-31T09:47:57;5.13;;;2.55;;
72639;SDS011;60683;51.730;8.762;2023-08-31T09:50:25;6.40;;;2.83;;
72639;SDS011;60683;51.730;8.762;2023-08-31T09:52:55;5.38;;;2.65;;
72639;SDS011;60683;51.730;8.762;2023-08-31T09:55:27;3.95;;;1.67;;
72639;SDS011;60683;51.730;8.762;2023-08-31T09:57:57;4.63;;;2.58;;
72639;SDS011;60683;51.730;8.762;2023-08-31T10:00:26;5.28;;;2.70;;
72639;SDS011;60683;51.730;8.762;2023-08-31T10:02:53;6.18;;;2.60;;
72639;SDS011;60683;51.730;8.762;2023-08-31T10:05:23;4.00;;;2.22;;
72639;SDS011;60683;51.730;8.762;2023-08-31T10:07:51;3.63;;;2.40;;
72639;SDS011;60683;51.730;8.762;2023-08-31T10:10:18;5.30;;;2.97;;
72639;SDS011;60683;51.730;8.762;2023-08-31T10:12:47;5.78;;;2.85;;
72639;SDS011;60683;51.730;8.762;2023-08-31T10:15:15;6.00;;;2.30;;
72639;SDS011;60683;51.730;8.762;2023-08-31T10:17:42;4.03;;;1.88;;
72639;SDS011;60683;51.730;8.762;2023-08-31T10:20:10;4.28;;;2.33;;
72639;SDS011;60683;51.730;8.762;2023-08-31T10:22:38;4.78;;;1.70;;
72639;SDS011;60683;51.730;8.762;2023-08-31T10:25:05;4.47;;;2.03;;
72639;SDS011;60683;51.730;8.762;2023-08-31T10:27:37;3.97;;;2.17;;
72639;SDS011;60683;51.730;8.762;2023-08-31T10:30:19;4.50;;;2.10;;
72639;SDS011;60683;51.730;8.762;2023-08-31T10:35:50;3.95;;;1.63;;
72639;SDS011;60683;51.730;8.762;2023-08-31T10:38:25;3.45;;;1.50;;
72639;SDS011;60683;51.730;8.762;2023-08-31T10:41:00;4.53;;;2.03;;
72639;SDS011;60683;51.730;8.762;2023-08-31T10:43:42;3.08;;;1.35;;
72639;SDS011;60683;51.730;8.762;2023-08-31T10:46:30;2.60;;;1.05;;
72639;SDS011;60683;51.730;8.762;2023-08-31T10:48:59;3.55;;;1.27;;
72639;SDS011;60683;51.730;8.762;2023-08-31T10:51:29;5.13;;;1.63;;
72639;SDS011;60683;51.730;8.762;2023-08-31T10:54:04;3.25;;;1.45;;
72639;SDS011;60683;51.730;8.762;2023-08-31T10:56:31;3.05;;;1.30;;
72639;SDS011;60683;51.730;8.762;2023-08-31T10:58:59;3.28;;;1.38;;
72639;SDS011;60683;51.730;8.762;2023-08-31T11:04:22;3.63;;;1.55;;
72639;SDS011;60683;51.730;8.762;2023-08-31T11:09:38;2.55;;;1.10;;
72639;SDS011;60683;51.730;8.762;2023-08-31T11:12:05;4.00;;;1.60;;
72639;SDS011;60683;51.730;8.762;2023-08-31T11:14:33;2.42;;;1.10;;
72639;SDS011;60683;51.730;8.762;2023-08-31T11:17:01;6.63;;;1.58;;
72639;SDS011;60683;51.730;8.762;2023-08-31T11:19:30;4.25;;;1.70;;
72639;SDS011;60683;51.730;8.762;2023-08-31T11:21:58;5.40;;;1.50;;
72639;SDS011;60683;51.730;8.762;2023-08-31T11:24:26;2.28;;;1.13;;
72639;SDS011;60683;51.730;8.762;2023-08-31T11:26:53;3.88;;;1.67;;
72639;SDS011;60683;51.730;8.762;2023-08-31T11:29:20;4.40;;;1.40;;
72639;SDS011;60683;51.730;8.762;2023-08-31T11:31:47;4.13;;;1.60;;
72639;SDS011;60683;51.730;8.762;2023-08-31T11:34:17;4.18;;;1.90;;
72639;SDS011;60683;51.730;8.762;2023-08-31T11:36:45;4.68;;;2.60;;
72639;SDS011;60683;51.730;8.762;2023-08-31T11:39:13;3.92;;;1.55;;
72639;SDS011;60683;51.730;8.762;2023-08-31T11:41:40;5.55;;;2.30;;
72639;SDS011;60683;51.730;8.762;2023-08-31T11:44:09;5.53;;;2.00;;
72639;SDS011;60683;51.730;8.762;2023-08-31T11:46:37;4.68;;;2.85;;
72639;SDS011;60683;51.730;8.762;2023-08-31T11:49:06;4.40;;;2.42;;
72639;SDS011;60683;51.730;8.762;2023-08-31T11:51:35;6.93;;;2.85;;
72639;SDS011;60683;51.730;8.762;2023-08-31T11:54:06;6.93;;;3.47;;
72639;SDS011;60683;51.730;8.762;2023-08-31T11:56:39;3.47;;;2.47;;
72639;SDS011;60683;51.730;8.762;2023-08-31T11:59:08;3.83;;;2.35;;
72639;SDS011;60683;51.730;8.762;2023-08-31T12:01:39;9.32;;;2.00;;
72639;SDS011;60683;51.730;8.762;2023-08-31T12:04:10;4.00;;;1.55;;
72639;SDS011;60683;51.730;8.762;2023-08-31T12:06:39;3.80;;;2.00;;
72639;SDS011;60683;51.730;8.762;2023-08-31T12:09:07;3.40;;;1.90;;
72639;SDS011;60683;51.730;8.762;2023-08-31T12:11:35;3.65;;;1.95;;
72639;SDS011;60683;51.730;8.762;2023-08-31T12:14:03;3.35;;;1.77;;
72639;SDS011;60683;51.730;8.762;2023-08-31T12:16:33;3.22;;;1.60;;
72639;SDS011;60683;51.730;8.762;2023-08-31T12:19:02;3.90;;;2.10;;
72639;SDS011;60683;51.730;8.762;2023-08-31T12:21:30;2.78;;;1.50;;
72639;SDS011;60683;51.730;8.762;2023-08-31T12:23:59;3.85;;;2.20;;
72639;SDS011;60683;51.730;8.762;2023-08-31T12:26:25;4.10;;;2.25;;
72639;SDS011;60683;51.730;8.762;2023-08-31T12:28:53;5.00;;;2.00;;
72639;SDS011;60683;51.730;8.762;2023-08-31T12:31:19;4.40;;;1.90;;
72639;SDS011;60683;51.730;8.762;2023-08-31T12:33:47;4.38;;;2.25;;
72639;SDS011;60683;51.730;8.762;2023-08-31T12:36:14;4.13;;;1.88;;
72639;SDS011;60683;51.730;8.762;2023-08-31T12:38:41;3.92;;;1.60;;
72639;SDS011;60683;51.730;8.762;2023-08-31T12:41:09;3.75;;;1.80;;
72639;SDS011;60683;51.730;8.762;2023-08-31T12:43:36;4.90;;;2.20;;
72639;SDS011;60683;51.730;8.762;2023-08-31T12:46:04;3.70;;;1.88;;
72639;SDS011;60683;51.730;8.762;2023-08-31T12:48:31;3.33;;;1.48;;
72639;SDS011;60683;51.730;8.762;2023-08-31T12:50:58;3.83;;;1.70;;
72639;SDS011;60683;51.730;8.762;2023-08-31T12:53:25;4.30;;;2.10;;
72639;SDS011;60683;51.730;8.762;2023-08-31T12:55:53;3.40;;;1.83;;
72639;SDS011;60683;51.730;8.762;2023-08-31T12:58:22;3.60;;;1.70;;
72639;SDS011;60683;51.730;8.762;2023-08-31T13:00:48;2.78;;;1.70;;
72639;SDS011;60683;51.730;8.762;2023-08-31T13:03:18;3.42;;;1.98;;
72639;SDS011;60683;51.730;8.762;2023-08-31T13:05:46;4.10;;;2.20;;
72639;SDS011;60683;51.730;8.762;2023-08-31T13:08:13;2.63;;;1.55;;
72639;SDS011;60683;51.730;8.762;2023-08-31T13:10:40;4.93;;;2.20;;
72639;SDS011;60683;51.730;8.762;2023-08-31T13:13:07;3.40;;;1.90;;
72639;SDS011;60683;51.730;8.762;2023-08-31T13:15:35;4.22;;;1.70;;
72639;SDS011;60683;51.730;8.762;2023-08-31T13:18:03;5.13;;;1.80;;
72639;SDS011;60683;51.730;8.762;2023-08-31T13:20:30;3.67;;;1.77;;
72639;SDS011;60683;51.730;8.762;2023-08-31T13:22:57;3.40;;;1.60;;
72639;SDS011;60683;51.730;8.762;2023-08-31T13:25:24;3.95;;;1.90;;
72639;SDS011;60683;51.730;8.762;2023-08-31T13:27:51;4.15;;;2.35;;
72639;SDS011;60683;51.730;8.762;2023-08-31T13:30:18;3.35;;;1.40;;
72639;SDS011;60683;51.730;8.762;2023-08-31T13:32:46;3.10;;;1.60;;
72639;SDS011;60683;51.730;8.762;2023-08-31T13:35:13;3.00;;;1.60;;
72639;SDS011;60683;51.730;8.762;2023-08-31T13:37:41;4.30;;;1.70;;
72639;SDS011;60683;51.730;8.762;2023-08-31T13:40:08;2.78;;;1.40;;
72639;SDS011;60683;51.730;8.762;2023-08-31T13:42:35;3.63;;;1.70;;
72639;SDS011;60683;51.730;8.762;2023-08-31T13:45:04;3.30;;;1.60;;
72639;SDS011;60683;51.730;8.762;2023-08-31T13:47:33;5.32;;;1.70;;
72639;SDS011;60683;51.730;8.762;2023-08-31T13:50:01;4.05;;;1.83;;
72639;SDS011;60683;51.730;8.762;2023-08-31T13:52:29;3.28;;;1.63;;
72639;SDS011;60683;51.730;8.762;2023-08-31T13:54:56;4.05;;;1.50;;
72639;SDS011;60683;51.730;8.762;2023-08-31T13:57:23;4.75;;;1.60;;
72639;SDS011;60683;51.730;8.762;2023-08-31T13:59:50;3.95;;;1.40;;
72639;SDS011;60683;51.730;8.762;2023-08-31T14:02:18;2.97;;;1.50;;
72639;SDS011;60683;51.730;8.762;2023-08-31T14:04:45;4.93;;;1.80;;
72639;SDS011;60683;51.730;8.762;2023-08-31T14:07:13;3.92;;;1.65;;
72639;SDS011;60683;51.730;8.762;2023-08-31T14:09:40;3.45;;;1.30;;
72639;SDS011;60683;51.730;8.762;2023-08-31T14:12:07;2.85;;;1.40;;
72639;SDS011;60683;51.730;8.762;2023-08-31T14:14:34;3.72;;;1.80;;
72639;SDS011;60683;51.730;8.762;2023-08-31T14:17:02;4.43;;;1.90;;
72639;SDS011;60683;51.730;8.762;2023-08-31T14:19:29;3.42;;;1.80;;
72639;SDS011;60683;51.730;8.762;2023-08-31T14:21:56;4.40;;;1.40;;
72639;SDS011;60683;51.730;8.762;2023-08-31T14:24:24;4.60;;;1.52;;
72639;SDS011;60683;51.730;8.762;2023-08-31T14:26:51;5.13;;;1.52;;
72639;SDS011;60683;51.730;8.762;2023-08-31T14:29:18;4.15;;;1.40;;
72639;SDS011;60683;51.730;8.762;2023-08-31T14:31:45;5.13;;;1.20;;
72639;SDS011;60683;51.730;8.762;2023-08-31T14:34:11;2.90;;;0.90;;
72639;SDS011;60683;51.730;8.762;2023-08-31T14:36:39;1.73;;;0.73;;
72639;SDS011;60683;51.730;8.762;2023-08-31T14:39:05;3.72;;;1.10;;
72639;SDS011;60683;51.730;8.762;2023-08-31T14:41:34;4.93;;;1.10;;
72639;SDS011;60683;51.730;8.762;2023-08-31T14:44:01;2.95;;;0.73;;
72639;SDS011;60683;51.730;8.762;2023-08-31T14:46:28;2.40;;;1.05;;
72639;SDS011;60683;51.730;8.762;2023-08-31T14:48:55;3.08;;;1.30;;
72639;SDS011;60683;51.730;8.762;2023-08-31T14:51:22;3.60;;;1.50;;
72639;SDS011;60683;51.730;8.762;2023-08-31T14:53:49;2.95;;;1.20;;
72639;SDS011;60683;51.730;8.762;2023-08-31T14:56:16;4.47;;;1.40;;
72639;SDS011;60683;51.730;8.762;2023-08-31T14:58:44;4.03;;;1.70;;
72639;SDS011;60683;51.730;8.762;2023-08-31T15:01:11;4.53;;;2.40;;